sensor_id;sensor_type;location;lat;lon;timestamp;pressure;altitude;pressure_sealevel;temperature;humidity
66880;BME280;53789;51.392;10.234;2022-07-26T00:00:37;97942.31;;;18.06;65.70
66880;BME280;53789;51.392;10.234;2022-07-26T00:00:57;97947.09;;;18.05;65.10
66880;BME280;53789;51.392;10.234;2022-07-26T00:02:18;97949.41;;;18.03;65.89
66880;BME280;53789;51.392;10.234;2022-07-26T00:02:41;97946.19;;;18.01;66.21
66880;BME280;53789;51.392;10.234;2022-07-26T00:03:02;97952.94;;;18.00;65.81
66880;BME280;53789;51.392;10.234;2022-07-26T00:03:22;97949.72;;;17.98;65.45
66880;BME280;53789;51.392;10.234;2022-07-26T00:03:42;97948.44;;;17.95;65.64
66880;BME280;53789;51.392;10.234;2022-07-26T00:04:03;97950.44;;;17.95;65.97
66880;BME280;53789;51.392;10.234;2022-07-26T00:14:21;97947.13;;;17.57;67.05
66880;BME280;53789;51.392;10.234;2022-07-26T00:29:38;97937.38;;;17.32;67.49
66880;BME280;53789;51.392;10.234;2022-07-26T00:29:58;97932.97;;;17.31;67.45
66880;BME280;53789;51.392;10.234;2022-07-26T00:30:19;97935.75;;;17.31;67.06
66880;BME280;53789;51.392;10.234;2022-07-26T00:49:11;97924.13;;;16.81;69.79
66880;BME280;53789;51.392;10.234;2022-07-26T00:58:02;97929.81;;;16.72;69.28
66880;BME280;53789;51.392;10.234;2022-07-26T01:41:16;97961.19;;;16.44;70.15
66880;BME280;53789;51.392;10.234;2022-07-26T01:41:36;97966.41;;;16.46;69.21
66880;BME280;53789;51.392;10.234;2022-07-26T01:41:56;97968.34;;;16.45;69.39
66880;BME280;53789;51.392;10.234;2022-07-26T01:48:41;97969.91;;;16.59;68.95
66880;BME280;53789;51.392;10.234;2022-07-26T01:49:02;97967.13;;;16.59;70.38
66880;BME280;53789;51.392;10.234;2022-07-26T01:52:52;97968.16;;;16.66;69.77
66880;BME280;53789;51.392;10.234;2022-07-26T01:55:43;97968.47;;;16.77;69.23
66880;BME280;53789;51.392;10.234;2022-07-26T01:56:03;97964.53;;;16.78;69.76
66880;BME280;53789;51.392;10.234;2022-07-26T01:56:24;97966.97;;;16.80;68.88
66880;BME280;53789;51.392;10.234;2022-07-26T01:56:44;97968.53;;;16.81;69.50
66880;BME280;53789;51.392;10.234;2022-07-26T01:59:35;97963.56;;;16.86;68.70
66880;BME280;53789;51.392;10.234;2022-07-26T01:59:55;97961.59;;;16.87;68.67
66880;BME280;53789;51.392;10.234;2022-07-26T02:00:46;97958.00;;;16.86;69.03
66880;BME280;53789;51.392;10.234;2022-07-26T02:21:38;97958.72;;;16.83;69.87
66880;BME280;53789;51.392;10.234;2022-07-26T02:21:58;97953.16;;;16.83;69.78
66880;BME280;53789;51.392;10.234;2022-07-26T02:41:49;97967.19;;;16.74;70.32
66880;BME280;53789;51.392;10.234;2022-07-26T02:42:10;97969.63;;;16.76;69.95
66880;BME280;53789;51.392;10.234;2022-07-26T02:49:04;97957.63;;;16.88;69.59
66880;BME280;53789;51.392;10.234;2022-07-26T03:04:48;97959.50;;;16.96;68.14
66880;BME280;53789;51.392;10.234;2022-07-26T03:06:08;97961.56;;;16.99;68.17
66880;BME280;53789;51.392;10.234;2022-07-26T03:09:29;97957.69;;;17.04;68.90
66880;BME280;53789;51.392;10.234;2022-07-26T03:16:47;97948.22;;;17.05;67.74
66880;BME280;53789;51.392;10.234;2022-07-26T03:17:08;97949.38;;;17.04;68.14
66880;BME280;53789;51.392;10.234;2022-07-26T03:22:29;97956.00;;;16.99;68.18
66880;BME280;53789;51.392;10.234;2022-07-26T03:22:49;97960.75;;;16.99;68.12
66880;BME280;53789;51.392;10.234;2022-07-26T03:23:09;97959.94;;;16.98;68.10
66880;BME280;53789;51.392;10.234;2022-07-26T03:28:32;97949.53;;;16.95;67.96
66880;BME280;53789;51.392;10.234;2022-07-26T03:28:52;97951.16;;;16.96;68.54
66880;BME280;53789;51.392;10.234;2022-07-26T03:31:43;97957.88;;;16.95;67.99
66880;BME280;53789;51.392;10.234;2022-07-26T03:33:03;97960.22;;;16.93;68.27
66880;BME280;53789;51.392;10.234;2022-07-26T03:42:50;97965.75;;;16.93;68.20
66880;BME280;53789;51.392;10.234;2022-07-26T03:43:10;97966.56;;;16.94;68.07
66880;BME280;53789;51.392;10.234;2022-07-26T03:44:00;97968.53;;;16.93;67.89
66880;BME280;53789;51.392;10.234;2022-07-26T03:54:22;97967.50;;;16.85;67.21
66880;BME280;53789;51.392;10.234;2022-07-26T04:10:44;97976.03;;;16.64;67.75
66880;BME280;53789;51.392;10.234;2022-07-26T04:11:05;97980.44;;;16.65;67.77
66880;BME280;53789;51.392;10.234;2022-07-26T04:13:21;97978.38;;;16.62;66.32
66880;BME280;53789;51.392;10.234;2022-07-26T04:13:41;97986.34;;;16.64;65.35
66880;BME280;53789;51.392;10.234;2022-07-26T04:14:02;97983.91;;;16.62;65.51
66880;BME280;53789;51.392;10.234;2022-07-26T04:18:23;97986.22;;;16.60;63.82
66880;BME280;53789;51.392;10.234;2022-07-26T04:19:13;97980.66;;;16.60;64.31
66880;BME280;53789;51.392;10.234;2022-07-26T04:21:04;97982.41;;;16.65;64.30
66880;BME280;53789;51.392;10.234;2022-07-26T04:21:24;97991.53;;;16.65;63.94
66880;BME280;53789;51.392;10.234;2022-07-26T04:21:44;97980.44;;;16.65;64.18
66880;BME280;53789;51.392;10.234;2022-07-26T04:24:35;97988.50;;;16.70;63.70
66880;BME280;53789;51.392;10.234;2022-07-26T04:24:55;97992.09;;;16.71;63.61
66880;BME280;53789;51.392;10.234;2022-07-26T04:26:45;97985.13;;;16.77;64.07
66880;BME280;53789;51.392;10.234;2022-07-26T04:27:06;97994.25;;;16.78;62.99
66880;BME280;53789;51.392;10.234;2022-07-26T04:27:26;97993.09;;;16.79;63.22
66880;BME280;53789;51.392;10.234;2022-07-26T04:27:47;97989.16;;;16.80;63.48
66880;BME280;53789;51.392;10.234;2022-07-26T04:28:09;97982.78;;;16.79;63.67
66880;BME280;53789;51.392;10.234;2022-07-26T04:28:29;97986.41;;;16.80;63.61
66880;BME280;53789;51.392;10.234;2022-07-26T04:28:50;97988.00;;;16.81;63.26
66880;BME280;53789;51.392;10.234;2022-07-26T04:29:40;97992.38;;;16.82;63.66
66880;BME280;53789;51.392;10.234;2022-07-26T04:30:01;97992.03;;;16.83;63.01
66880;BME280;53789;51.392;10.234;2022-07-26T04:32:21;98002.91;;;16.88;62.59
66880;BME280;53789;51.392;10.234;2022-07-26T04:32:43;97989.81;;;16.89;62.65
66880;BME280;53789;51.392;10.234;2022-07-26T04:33:04;97983.13;;;16.90;63.50
66880;BME280;53789;51.392;10.234;2022-07-26T04:33:25;97991.47;;;16.90;63.01
66880;BME280;53789;51.392;10.234;2022-07-26T04:41:44;97994.81;;;17.12;63.13
66880;BME280;53789;51.392;10.234;2022-07-26T04:42:05;98005.22;;;17.15;62.45
66880;BME280;53789;51.392;10.234;2022-07-26T04:42:55;98005.69;;;17.17;63.59
66880;BME280;53789;51.392;10.234;2022-07-26T04:43:16;98008.09;;;17.18;62.93
66880;BME280;53789;51.392;10.234;2022-07-26T04:43:37;97998.59;;;17.19;63.25
66880;BME280;53789;51.392;10.234;2022-07-26T04:43:57;98001.03;;;17.21;62.75
66880;BME280;53789;51.392;10.234;2022-07-26T04:45:13;98011.88;;;17.26;62.26
66880;BME280;53789;51.392;10.234;2022-07-26T04:45:33;98005.16;;;17.27;62.07
66880;BME280;53789;51.392;10.234;2022-07-26T04:47:24;97997.69;;;17.31;62.77
66880;BME280;53789;51.392;10.234;2022-07-26T04:47:46;97994.22;;;17.34;62.05
66880;BME280;53789;51.392;10.234;2022-07-26T04:48:06;97996.19;;;17.34;62.81
66880;BME280;53789;51.392;10.234;2022-07-26T04:48:27;98003.38;;;17.35;62.38
66880;BME280;53789;51.392;10.234;2022-07-26T04:48:47;98011.34;;;17.36;62.18
66880;BME280;53789;51.392;10.234;2022-07-26T04:49:07;98002.22;;;17.36;62.66
66880;BME280;53789;51.392;10.234;2022-07-26T04:49:27;97999.88;;;17.38;62.13
66880;BME280;53789;51.392;10.234;2022-07-26T04:49:48;98002.66;;;17.38;62.18
66880;BME280;53789;51.392;10.234;2022-07-26T04:50:09;98003.44;;;17.38;61.65
66880;BME280;53789;51.392;10.234;2022-07-26T04:50:30;98002.28;;;17.39;62.14
66880;BME280;53789;51.392;10.234;2022-07-26T04:50:51;98005.50;;;17.41;62.74
66880;BME280;53789;51.392;10.234;2022-07-26T04:51:11;98005.16;;;17.43;63.21
66880;BME280;53789;51.392;10.234;2022-07-26T04:51:32;98000.41;;;17.43;63.10
66880;BME280;53789;51.392;10.234;2022-07-26T04:51:52;98003.63;;;17.46;63.38
66880;BME280;53789;51.392;10.234;2022-07-26T04:52:12;98012.81;;;17.46;62.26
66880;BME280;53789;51.392;10.234;2022-07-26T04:52:33;98012.44;;;17.48;62.46
66880;BME280;53789;51.392;10.234;2022-07-26T04:52:53;98002.13;;;17.48;62.71
66880;BME280;53789;51.392;10.234;2022-07-26T04:53:14;98002.91;;;17.49;62.22
66880;BME280;53789;51.392;10.234;2022-07-26T04:53:34;98006.97;;;17.51;62.39
66880;BME280;53789;51.392;10.234;2022-07-26T04:53:55;98003.81;;;17.53;62.98
66880;BME280;53789;51.392;10.234;2022-07-26T04:54:15;98002.66;;;17.54;62.85
66880;BME280;53789;51.392;10.234;2022-07-26T04:54:35;98009.81;;;17.55;62.23
66880;BME280;53789;51.392;10.234;2022-07-26T04:54:56;98005.53;;;17.57;62.41
66880;BME280;53789;51.392;10.234;2022-07-26T04:55:17;98011.91;;;17.58;62.09
66880;BME280;53789;51.392;10.234;2022-07-26T04:55:38;98006.44;;;17.61;62.23
66880;BME280;53789;51.392;10.234;2022-07-26T04:55:59;98010.47;;;17.64;61.95
66880;BME280;53789;51.392;10.234;2022-07-26T04:56:19;98005.69;;;17.65;61.77
66880;BME280;53789;51.392;10.234;2022-07-26T04:56:39;98010.09;;;17.66;61.87
66880;BME280;53789;51.392;10.234;2022-07-26T04:57:00;98004.53;;;17.66;62.19
66880;BME280;53789;51.392;10.234;2022-07-26T04:57:20;98003.34;;;17.67;62.09
66880;BME280;53789;51.392;10.234;2022-07-26T04:57:41;98006.97;;;17.67;61.46
66880;BME280;53789;51.392;10.234;2022-07-26T04:58:01;98001.41;;;17.67;62.27
66880;BME280;53789;51.392;10.234;2022-07-26T04:58:22;98007.75;;;17.68;62.01
66880;BME280;53789;51.392;10.234;2022-07-26T04:58:42;98006.59;;;17.69;61.32
66880;BME280;53789;51.392;10.234;2022-07-26T04:59:03;98009.75;;;17.67;61.26
66880;BME280;53789;51.392;10.234;2022-07-26T04:59:23;98002.56;;;17.66;61.63
66880;BME280;53789;51.392;10.234;2022-07-26T04:59:43;98000.22;;;17.68;61.38
66880;BME280;53789;51.392;10.234;2022-07-26T05:00:06;98006.59;;;17.69;61.80
66880;BME280;53789;51.392;10.234;2022-07-26T05:00:27;98006.59;;;17.69;61.29
66880;BME280;53789;51.392;10.234;2022-07-26T05:00:47;98001.47;;;17.71;62.22
66880;BME280;53789;51.392;10.234;2022-07-26T05:01:08;98002.66;;;17.70;61.57
66880;BME280;53789;51.392;10.234;2022-07-26T05:01:28;98005.44;;;17.70;61.99
66880;BME280;53789;51.392;10.234;2022-07-26T05:01:48;98004.63;;;17.69;61.38
66880;BME280;53789;51.392;10.234;2022-07-26T05:02:09;97999.88;;;17.70;62.33
66880;BME280;53789;51.392;10.234;2022-07-26T05:02:58;98001.47;;;17.71;61.56
66880;BME280;53789;51.392;10.234;2022-07-26T05:03:47;98009.09;;;17.74;62.49
66880;BME280;53789;51.392;10.234;2022-07-26T05:04:07;97997.97;;;17.74;62.12
66880;BME280;53789;51.392;10.234;2022-07-26T05:04:27;98004.38;;;17.74;61.34
66880;BME280;53789;51.392;10.234;2022-07-26T05:04:51;98008.38;;;17.77;61.87
66880;BME280;53789;51.392;10.234;2022-07-26T05:05:11;98009.56;;;17.76;61.93
66880;BME280;53789;51.392;10.234;2022-07-26T05:05:32;98008.38;;;17.77;61.33
66880;BME280;53789;51.392;10.234;2022-07-26T05:05:53;98005.22;;;17.78;61.43
66880;BME280;53789;51.392;10.234;2022-07-26T05:06:13;98004.06;;;17.79;61.98
66880;BME280;53789;51.392;10.234;2022-07-26T05:06:33;98001.28;;;17.79;61.43
66880;BME280;53789;51.392;10.234;2022-07-26T05:06:54;98010.09;;;17.82;62.01
66880;BME280;53789;51.392;10.234;2022-07-26T05:07:14;98001.75;;;17.82;62.17
66880;BME280;53789;51.392;10.234;2022-07-26T05:07:42;98006.97;;;17.83;61.96
66880;BME280;53789;51.392;10.234;2022-07-26T05:08:03;97995.00;;;17.83;61.90
66880;BME280;53789;51.392;10.234;2022-07-26T05:08:23;97999.88;;;17.86;61.27
66880;BME280;53789;51.392;10.234;2022-07-26T05:08:43;98003.50;;;17.86;61.20
66880;BME280;53789;51.392;10.234;2022-07-26T05:09:04;98003.50;;;17.86;61.86
66880;BME280;53789;51.392;10.234;2022-07-26T05:09:24;97998.72;;;17.87;61.19
66880;BME280;53789;51.392;10.234;2022-07-26T05:09:44;98003.50;;;17.86;61.67
66880;BME280;53789;51.392;10.234;2022-07-26T05:10:05;98009.06;;;17.86;60.99
66880;BME280;53789;51.392;10.234;2022-07-26T05:10:32;98001.03;;;17.85;61.79
66880;BME280;53789;51.392;10.234;2022-07-26T05:10:53;98001.50;;;17.87;61.15
66880;BME280;53789;51.392;10.234;2022-07-26T05:11:13;98008.22;;;17.86;61.82
66880;BME280;53789;51.392;10.234;2022-07-26T05:11:33;98000.72;;;17.86;61.10
66880;BME280;53789;51.392;10.234;2022-07-26T05:11:54;98006.28;;;17.86;61.20
66880;BME280;53789;51.392;10.234;2022-07-26T05:12:14;97999.88;;;17.86;61.44
66880;BME280;53789;51.392;10.234;2022-07-26T05:12:34;98010.66;;;17.87;61.34
66880;BME280;53789;51.392;10.234;2022-07-26T05:12:55;98005.44;;;17.86;61.78
66880;BME280;53789;51.392;10.234;2022-07-26T05:13:16;98002.66;;;17.86;61.38
66880;BME280;53789;51.392;10.234;2022-07-26T05:13:36;98005.78;;;17.84;61.85
66880;BME280;53789;51.392;10.234;2022-07-26T05:13:56;98002.19;;;17.84;61.77
66880;BME280;53789;51.392;10.234;2022-07-26T05:14:16;97997.78;;;17.83;61.25
66880;BME280;53789;51.392;10.234;2022-07-26T05:14:37;97999.41;;;17.84;61.38
66880;BME280;53789;51.392;10.234;2022-07-26T05:14:57;98007.75;;;17.84;61.64
66880;BME280;53789;51.392;10.234;2022-07-26T05:15:17;97998.63;;;17.83;62.29
66880;BME280;53789;51.392;10.234;2022-07-26T05:15:37;98006.59;;;17.85;62.52
66880;BME280;53789;51.392;10.234;2022-07-26T05:15:58;98008.22;;;17.86;62.18
66880;BME280;53789;51.392;10.234;2022-07-26T05:16:19;98010.19;;;17.85;62.17
66880;BME280;53789;51.392;10.234;2022-07-26T05:16:39;98007.41;;;17.85;61.61
66880;BME280;53789;51.392;10.234;2022-07-26T05:16:59;98009.38;;;17.85;62.12
66880;BME280;53789;51.392;10.234;2022-07-26T05:17:19;98003.81;;;17.85;62.22
66880;BME280;53789;51.392;10.234;2022-07-26T05:17:42;98010.19;;;17.85;61.41
66880;BME280;53789;51.392;10.234;2022-07-26T05:18:07;98002.66;;;17.86;61.46
66880;BME280;53789;51.392;10.234;2022-07-26T05:18:28;98004.63;;;17.85;61.67
66880;BME280;53789;51.392;10.234;2022-07-26T05:18:48;98002.66;;;17.86;61.65
66880;BME280;53789;51.392;10.234;2022-07-26T05:19:08;98002.66;;;17.86;61.69
66880;BME280;53789;51.392;10.234;2022-07-26T05:19:29;98008.22;;;17.86;61.85
66880;BME280;53789;51.392;10.234;2022-07-26T05:19:49;97998.72;;;17.87;62.62
66880;BME280;53789;51.392;10.234;2022-07-26T05:20:13;98001.50;;;17.87;62.38
66880;BME280;53789;51.392;10.234;2022-07-26T05:20:35;98004.28;;;17.87;61.65
66880;BME280;53789;51.392;10.234;2022-07-26T05:20:55;98003.13;;;17.88;62.27
66880;BME280;53789;51.392;10.234;2022-07-26T05:21:17;98002.31;;;17.87;62.31
66880;BME280;53789;51.392;10.234;2022-07-26T05:21:37;97999.53;;;17.87;61.62
66880;BME280;53789;51.392;10.234;2022-07-26T05:23:54;97997.00;;;17.82;61.34
66880;BME280;53789;51.392;10.234;2022-07-26T05:24:14;98003.72;;;17.81;61.71
66880;BME280;53789;51.392;10.234;2022-07-26T05:24:34;97998.50;;;17.79;61.37
66880;BME280;53789;51.392;10.234;2022-07-26T05:24:55;97992.16;;;17.79;61.51
66880;BME280;53789;51.392;10.234;2022-07-26T05:25:15;98001.28;;;17.79;61.75
66880;BME280;53789;51.392;10.234;2022-07-26T05:25:35;97990.53;;;17.78;61.69
66880;BME280;53789;51.392;10.234;2022-07-26T05:25:55;98004.81;;;17.76;61.77
66880;BME280;53789;51.392;10.234;2022-07-26T05:26:16;98005.97;;;17.75;61.99
66880;BME280;53789;51.392;10.234;2022-07-26T05:26:36;97994.84;;;17.75;62.48
66880;BME280;53789;51.392;10.234;2022-07-26T05:26:56;98001.13;;;17.72;62.44
66880;BME280;53789;51.392;10.234;2022-07-26T05:27:17;97998.34;;;17.72;62.15
66880;BME280;53789;51.392;10.234;2022-07-26T05:27:37;98005.88;;;17.72;62.61
66880;BME280;53789;51.392;10.234;2022-07-26T05:27:58;98001.47;;;17.71;62.32
66880;BME280;53789;51.392;10.234;2022-07-26T05:28:18;98000.69;;;17.70;62.14
66880;BME280;53789;51.392;10.234;2022-07-26T05:28:39;98005.78;;;17.68;62.44
66880;BME280;53789;51.392;10.234;2022-07-26T05:28:59;98002.19;;;17.68;61.82
66880;BME280;53789;51.392;10.234;2022-07-26T05:29:19;98003.34;;;17.67;61.87
66880;BME280;53789;51.392;10.234;2022-07-26T05:29:40;98003.72;;;17.65;62.53
66880;BME280;53789;51.392;10.234;2022-07-26T05:30:00;98003.28;;;17.63;61.89
66880;BME280;53789;51.392;10.234;2022-07-26T05:30:21;98002.03;;;17.60;61.93
66880;BME280;53789;51.392;10.234;2022-07-26T05:30:41;98006.78;;;17.60;61.91
66880;BME280;53789;51.392;10.234;2022-07-26T05:31:01;98002.38;;;17.59;62.58
66880;BME280;53789;51.392;10.234;2022-07-26T05:31:22;98000.78;;;17.58;62.89
66880;BME280;53789;51.392;10.234;2022-07-26T05:31:42;98002.31;;;17.55;62.85
66880;BME280;53789;51.392;10.234;2022-07-26T05:32:02;98001.47;;;17.55;61.95
66880;BME280;53789;51.392;10.234;2022-07-26T05:32:23;97999.88;;;17.54;62.54
66880;BME280;53789;51.392;10.234;2022-07-26T05:32:43;98010.19;;;17.53;62.78
66880;BME280;53789;51.392;10.234;2022-07-26T05:33:04;98005.44;;;17.54;62.33
66880;BME280;53789;51.392;10.234;2022-07-26T05:33:24;98002.19;;;17.52;62.83
66880;BME280;53789;51.392;10.234;2022-07-26T05:33:44;98000.59;;;17.51;62.81
66880;BME280;53789;51.392;10.234;2022-07-26T05:34:04;98000.13;;;17.49;62.06
66880;BME280;53789;51.392;10.234;2022-07-26T05:34:25;98008.47;;;17.49;63.09
66880;BME280;53789;51.392;10.234;2022-07-26T05:34:45;98003.28;;;17.47;63.19
66880;BME280;53789;51.392;10.234;2022-07-26T05:35:06;98007.59;;;17.45;62.57
66880;BME280;53789;51.392;10.234;2022-07-26T05:35:27;98001.22;;;17.44;62.31
66880;BME280;53789;51.392;10.234;2022-07-26T05:35:47;98000.41;;;17.43;63.05
66880;BME280;53789;51.392;10.234;2022-07-26T05:36:08;98005.16;;;17.43;62.53
66880;BME280;53789;51.392;10.234;2022-07-26T05:36:28;98001.56;;;17.42;63.27
66880;BME280;53789;51.392;10.234;2022-07-26T05:36:49;98003.91;;;17.40;62.61
66880;BME280;53789;51.392;10.234;2022-07-26T05:37:09;98001.13;;;17.40;63.01
66880;BME280;53789;51.392;10.234;2022-07-26T05:37:30;98005.88;;;17.40;63.36
66880;BME280;53789;51.392;10.234;2022-07-26T05:37:50;98000.66;;;17.38;63.42
66880;BME280;53789;51.392;10.234;2022-07-26T05:38:10;98001.84;;;17.37;62.99
66880;BME280;53789;51.392;10.234;2022-07-26T05:38:31;97996.28;;;17.37;62.92
66880;BME280;53789;51.392;10.234;2022-07-26T05:38:51;98003.00;;;17.36;63.37
66880;BME280;53789;51.392;10.234;2022-07-26T05:40:12;98001.03;;;17.37;63.46
66880;BME280;53789;51.392;10.234;2022-07-26T05:40:32;98004.63;;;17.37;62.86
66880;BME280;53789;51.392;10.234;2022-07-26T05:40:53;98003.44;;;17.38;63.76
66880;BME280;53789;51.392;10.234;2022-07-26T05:41:13;97999.50;;;17.39;63.84
66880;BME280;53789;51.392;10.234;2022-07-26T05:41:33;98001.94;;;17.41;63.67
66880;BME280;53789;51.392;10.234;2022-07-26T05:41:53;98003.91;;;17.40;63.15
66880;BME280;53789;51.392;10.234;2022-07-26T05:42:14;98003.56;;;17.42;63.55
66880;BME280;53789;51.392;10.234;2022-07-26T05:42:34;98000.41;;;17.43;63.44
66880;BME280;53789;51.392;10.234;2022-07-26T05:42:55;97994.84;;;17.43;63.83
66880;BME280;53789;51.392;10.234;2022-07-26T05:43:15;98001.22;;;17.44;64.02
66880;BME280;53789;51.392;10.234;2022-07-26T05:43:35;98002.03;;;17.45;63.93
66880;BME280;53789;51.392;10.234;2022-07-26T05:43:56;98002.47;;;17.47;63.96
66880;BME280;53789;51.392;10.234;2022-07-26T05:44:16;98000.50;;;17.47;63.49
66880;BME280;53789;51.392;10.234;2022-07-26T05:44:36;98000.97;;;17.49;63.47
66880;BME280;53789;51.392;10.234;2022-07-26T05:44:57;98003.75;;;17.49;63.38
66880;BME280;53789;51.392;10.234;2022-07-26T05:45:17;97999.78;;;17.50;63.59
66880;BME280;53789;51.392;10.234;2022-07-26T05:45:37;98002.56;;;17.50;63.33
66880;BME280;53789;51.392;10.234;2022-07-26T05:45:57;98007.75;;;17.52;63.21
66880;BME280;53789;51.392;10.234;2022-07-26T05:46:18;98003.81;;;17.53;63.61
66880;BME280;53789;51.392;10.234;2022-07-26T05:46:38;98003.81;;;17.53;63.50
66880;BME280;53789;51.392;10.234;2022-07-26T05:46:58;97999.06;;;17.53;63.11
66880;BME280;53789;51.392;10.234;2022-07-26T05:47:19;97997.09;;;17.54;63.77
66880;BME280;53789;51.392;10.234;2022-07-26T05:47:39;98010.19;;;17.53;63.62
66880;BME280;53789;51.392;10.234;2022-07-26T05:48:00;98011.00;;;17.54;63.82
66880;BME280;53789;51.392;10.234;2022-07-26T05:48:20;98003.81;;;17.53;62.97
66880;BME280;53789;51.392;10.234;2022-07-26T05:48:41;98011.00;;;17.54;63.19
66880;BME280;53789;51.392;10.234;2022-07-26T05:49:05;98006.25;;;17.54;63.54
66880;BME280;53789;51.392;10.234;2022-07-26T05:49:25;98005.44;;;17.54;62.91
66880;BME280;53789;51.392;10.234;2022-07-26T05:49:45;98001.47;;;17.55;63.75
66880;BME280;53789;51.392;10.234;2022-07-26T05:50:06;97994.75;;;17.56;63.38
66880;BME280;53789;51.392;10.234;2022-07-26T05:50:27;98005.53;;;17.57;62.51
66880;BME280;53789;51.392;10.234;2022-07-26T05:50:47;98004.38;;;17.58;63.14
66880;BME280;53789;51.392;10.234;2022-07-26T05:51:08;98006.00;;;17.59;63.04
66880;BME280;53789;51.392;10.234;2022-07-26T05:51:29;98010.00;;;17.62;62.85
66880;BME280;53789;51.392;10.234;2022-07-26T05:51:50;98005.28;;;17.63;62.83
66880;BME280;53789;51.392;10.234;2022-07-26T05:52:10;98010.47;;;17.64;63.39
66880;BME280;53789;51.392;10.234;2022-07-26T05:52:31;98013.25;;;17.64;63.50
66880;BME280;53789;51.392;10.234;2022-07-26T05:52:51;97997.38;;;17.65;62.95
66880;BME280;53789;51.392;10.234;2022-07-26T05:55:12;98014.94;;;17.69;62.29
66880;BME280;53789;51.392;10.234;2022-07-26T05:55:33;98005.78;;;17.68;62.36
66880;BME280;53789;51.392;10.234;2022-07-26T05:55:53;98010.19;;;17.69;62.09
66880;BME280;53789;51.392;10.234;2022-07-26T05:57:44;98003.81;;;17.69;62.10
66880;BME280;53789;51.392;10.234;2022-07-26T05:58:35;97993.97;;;17.71;62.86
66880;BME280;53789;51.392;10.234;2022-07-26T05:58:55;98006.69;;;17.72;62.27
66880;BME280;53789;51.392;10.234;2022-07-26T05:59:15;98006.69;;;17.72;62.65
66880;BME280;53789;51.392;10.234;2022-07-26T05:59:36;98001.13;;;17.72;62.24
66880;BME280;53789;51.392;10.234;2022-07-26T05:59:56;98008.31;;;17.73;62.99
66880;BME280;53789;51.392;10.234;2022-07-26T06:00:17;98009.94;;;17.74;62.51
66880;BME280;53789;51.392;10.234;2022-07-26T06:00:37;98005.97;;;17.75;62.30
66880;BME280;53789;51.392;10.234;2022-07-26T06:00:58;98009.22;;;17.77;62.67
66880;BME280;53789;51.392;10.234;2022-07-26T06:01:18;98010.00;;;17.78;62.81
66880;BME280;53789;51.392;10.234;2022-07-26T06:01:38;98010.81;;;17.78;62.10
66880;BME280;53789;51.392;10.234;2022-07-26T06:01:59;98005.22;;;17.78;61.98
66880;BME280;53789;51.392;10.234;2022-07-26T06:02:19;98009.63;;;17.79;62.42
66880;BME280;53789;51.392;10.234;2022-07-26T06:02:40;98009.28;;;17.81;61.58
66880;BME280;53789;51.392;10.234;2022-07-26T06:03:00;98014.03;;;17.81;62.04
66880;BME280;53789;51.392;10.234;2022-07-26T06:03:21;98011.69;;;17.83;61.31
66880;BME280;53789;51.392;10.234;2022-07-26T06:03:41;98016.47;;;17.82;61.93
66880;BME280;53789;51.392;10.234;2022-07-26T06:04:02;98010.91;;;17.82;62.08
66880;BME280;53789;51.392;10.234;2022-07-26T06:04:23;98008.91;;;17.83;61.78
66880;BME280;53789;51.392;10.234;2022-07-26T06:04:43;98010.53;;;17.84;62.17
66880;BME280;53789;51.392;10.234;2022-07-26T06:05:04;98007.41;;;17.85;61.74
66880;BME280;53789;51.392;10.234;2022-07-26T06:05:24;98005.44;;;17.86;62.54
66880;BME280;53789;51.392;10.234;2022-07-26T06:05:44;98007.06;;;17.87;62.46
66880;BME280;53789;51.392;10.234;2022-07-26T06:06:05;98011.09;;;17.89;62.17
66880;BME280;53789;51.392;10.234;2022-07-26T06:06:25;98009.91;;;17.90;62.23
66880;BME280;53789;51.392;10.234;2022-07-26T06:06:46;98010.81;;;17.94;62.59
66880;BME280;53789;51.392;10.234;2022-07-26T06:07:06;98003.31;;;17.95;62.67
66880;BME280;53789;51.392;10.234;2022-07-26T06:07:27;98014.88;;;17.97;62.47
66880;BME280;53789;51.392;10.234;2022-07-26T06:07:47;98010.47;;;17.96;62.23
66880;BME280;53789;51.392;10.234;2022-07-26T06:08:07;98008.13;;;17.98;61.36
66880;BME280;53789;51.392;10.234;2022-07-26T06:08:28;98007.78;;;18.00;62.04
66880;BME280;53789;51.392;10.234;2022-07-26T06:08:48;98012.16;;;18.01;61.82
66880;BME280;53789;51.392;10.234;2022-07-26T06:09:08;98009.00;;;18.02;61.91
66880;BME280;53789;51.392;10.234;2022-07-26T06:09:29;98015.84;;;18.05;61.41
66880;BME280;53789;51.392;10.234;2022-07-26T06:09:49;98009.91;;;18.06;61.44
66880;BME280;53789;51.392;10.234;2022-07-26T06:10:09;98003.19;;;18.07;61.87
66880;BME280;53789;51.392;10.234;2022-07-26T06:11:28;98006.84;;;18.11;61.16
66880;BME280;53789;51.392;10.234;2022-07-26T06:11:48;98005.66;;;18.12;61.05
66880;BME280;53789;51.392;10.234;2022-07-26T06:14:02;98008.09;;;18.14;60.86
66880;BME280;53789;51.392;10.234;2022-07-26T06:14:23;98014.84;;;18.13;61.45
66880;BME280;53789;51.392;10.234;2022-07-26T06:14:43;98014.47;;;18.15;60.80
66880;BME280;53789;51.392;10.234;2022-07-26T06:15:04;98006.94;;;18.15;61.33
66880;BME280;53789;51.392;10.234;2022-07-26T06:15:24;97999.03;;;18.17;61.81
66880;BME280;53789;51.392;10.234;2022-07-26T06:15:45;98009.81;;;18.19;60.86
66880;BME280;53789;51.392;10.234;2022-07-26T06:16:05;98000.63;;;18.18;61.05
66880;BME280;53789;51.392;10.234;2022-07-26T06:16:26;98000.25;;;18.20;61.29
66880;BME280;53789;51.392;10.234;2022-07-26T06:16:47;98021.00;;;18.22;60.79
66880;BME280;53789;51.392;10.234;2022-07-26T06:17:31;98013.09;;;18.24;61.73
66880;BME280;53789;51.392;10.234;2022-07-26T06:17:51;98008.34;;;18.25;61.36
66880;BME280;53789;51.392;10.234;2022-07-26T06:18:12;98010.31;;;18.24;60.91